sensor_id;sensor_type;location;lat;lon;timestamp;pressure;altitude;pressure_sealevel;temperature;humidity
12349;BME280;5974;42.710;27.258;2023-02-13T00:00:32;102168.09;;;-2.27;100.00
12349;BME280;5974;42.710;27.258;2023-02-13T00:02:59;102167.81;;;-2.52;100.00
12349;BME280;5974;42.710;27.258;2023-02-13T00:05:26;102167.78;;;-3.08;100.00
12349;BME280;5974;42.710;27.258;2023-02-13T00:07:54;102163.69;;;-2.48;100.00
12349;BME280;5974;42.710;27.258;2023-02-13T00:10:20;102164.56;;;-2.67;100.00
12349;BME280;5974;42.710;27.258;2023-02-13T00:12:49;102170.78;;;-2.62;100.00
12349;BME280;5974;42.710;27.258;2023-02-13T00:15:15;102174.03;;;-2.47;100.00
12349;BME280;5974;42.710;27.258;2023-02-13T00:17:42;102166.63;;;-2.41;100.00
12349;BME280;5974;42.710;27.258;2023-02-13T00:20:10;102176.53;;;-3.03;100.00
12349;BME280;5974;42.710;27.258;2023-02-13T00:22:37;102180.59;;;-2.89;100.00
12349;BME280;5974;42.710;27.258;2023-02-13T00:25:05;102177.75;;;-2.58;100.00
12349;BME280;5974;42.710;27.258;2023-02-13T00:27:32;102168.41;;;-2.57;100.00
12349;BME280;5974;42.710;27.258;2023-02-13T00:30:01;102171.69;;;-2.97;100.00
12349;BME280;5974;42.710;27.258;2023-02-13T00:32:28;102152.16;;;-2.77;100.00
12349;BME280;5974;42.710;27.258;2023-02-13T00:34:55;102171.41;;;-3.03;100.00
12349;BME280;5974;42.710;27.258;2023-02-13T00:37:22;102178.50;;;-2.60;100.00
12349;BME280;5974;42.710;27.258;2023-02-13T00:39:49;102166.63;;;-2.41;100.00
12349;BME280;5974;42.710;27.258;2023-02-13T00:42:16;102188.88;;;-2.57;100.00
12349;BME280;5974;42.710;27.258;2023-02-13T00:44:43;102188.97;;;-2.74;100.00
12349;BME280;5974;42.710;27.258;2023-02-13T00:47:11;102180.75;;;-2.86;100.00
12349;BME280;5974;42.710;27.258;2023-02-13T00:49:39;102176.44;;;-2.50;100.00
12349;BME280;5974;42.710;27.258;2023-02-13T00:52:06;102177.06;;;-2.73;100.00
12349;BME280;5974;42.710;27.258;2023-02-13T00:54:33;102178.78;;;-2.54;100.00
12349;BME280;5974;42.710;27.258;2023-02-13T00:57:00;102181.44;;;-2.53;100.00
12349;BME280;5974;42.710;27.258;2023-02-13T00:59:26;102176.81;;;-2.97;100.00
12349;BME280;5974;42.710;27.258;2023-02-13T01:01:53;102185.44;;;-2.58;100.00
12349;BME280;5974;42.710;27.258;2023-02-13T01:04:21;102184.00;;;-2.53;100.00
12349;BME280;5974;42.710;27.258;2023-02-13T01:06:48;102185.28;;;-2.43;100.00
12349;BME280;5974;42.710;27.258;2023-02-13T01:09:15;102181.56;;;-2.31;100.00
12349;BME280;5974;42.710;27.258;2023-02-13T01:11:42;102163.19;;;-2.41;100.00
12349;BME280;5974;42.710;27.258;2023-02-13T01:14:09;102168.78;;;-3.40;100.00
12349;BME280;5974;42.710;27.258;2023-02-13T01:16:36;102167.78;;;-3.08;100.00
12349;BME280;5974;42.710;27.258;2023-02-13T01:19:03;102180.66;;;-2.69;100.00
12349;BME280;5974;42.710;27.258;2023-02-13T01:21:31;102186.97;;;-2.61;100.00
12349;BME280;5974;42.710;27.258;2023-02-13T01:24:02;102183.16;;;-2.52;100.00
12349;BME280;5974;42.710;27.258;2023-02-13T01:26:29;102177.63;;;-2.80;100.00
12349;BME280;5974;42.710;27.258;2023-02-13T01:28:56;102185.72;;;-2.71;100.00
12349;BME280;5974;42.710;27.258;2023-02-13T01:31:23;102182.75;;;-2.61;100.00
12349;BME280;5974;42.710;27.258;2023-02-13T01:33:50;102188.47;;;-2.66;100.00
12349;BME280;5974;42.710;27.258;2023-02-13T01:36:17;102187.75;;;-2.82;100.00
12349;BME280;5974;42.710;27.258;2023-02-13T01:38:46;102193.00;;;-2.61;100.00
12349;BME280;5974;42.710;27.258;2023-02-13T01:41:13;102188.34;;;-3.40;100.00
12349;BME280;5974;42.710;27.258;2023-02-13T01:43:51;102185.50;;;-3.29;100.00
12349;BME280;5974;42.710;27.258;2023-02-13T01:46:23;102189.47;;;-3.17;100.00
12349;BME280;5974;42.710;27.258;2023-02-13T01:48:54;102185.16;;;-3.36;100.00
12349;BME280;5974;42.710;27.258;2023-02-13T01:51:24;102194.84;;;-3.29;100.00
12349;BME280;5974;42.710;27.258;2023-02-13T01:53:58;102207.06;;;-3.06;100.00
12349;BME280;5974;42.710;27.258;2023-02-13T01:56:28;102210.72;;;-2.65;100.00
12349;BME280;5974;42.710;27.258;2023-02-13T01:59:00;102208.03;;;-3.04;100.00
12349;BME280;5974;42.710;27.258;2023-02-13T02:01:29;102204.94;;;-2.79;100.00
12349;BME280;5974;42.710;27.258;2023-02-13T02:04:01;102209.84;;;-2.84;100.00
12349;BME280;5974;42.710;27.258;2023-02-13T02:06:34;102199.56;;;-3.20;100.00
12349;BME280;5974;42.710;27.258;2023-02-13T02:09:08;102189.09;;;-3.25;100.00
12349;BME280;5974;42.710;27.258;2023-02-13T02:11:41;102210.13;;;-2.95;100.00
12349;BME280;5974;42.710;27.258;2023-02-13T02:14:09;102177.22;;;-3.58;100.00
12349;BME280;5974;42.710;27.258;2023-02-13T02:16:36;102213.03;;;-4.39;100.00
12349;BME280;5974;42.710;27.258;2023-02-13T02:19:04;102210.13;;;-4.61;100.00
12349;BME280;5974;42.710;27.258;2023-02-13T02:22:00;102215.44;;;-3.94;100.00
12349;BME280;5974;42.710;27.258;2023-02-13T02:25:15;102221.38;;;-3.45;100.00
12349;BME280;5974;42.710;27.258;2023-02-13T02:28:19;102227.44;;;-3.43;100.00
12349;BME280;5974;42.710;27.258;2023-02-13T02:34:08;102214.00;;;-3.21;100.00
12349;BME280;5974;42.710;27.258;2023-02-13T02:36:50;102216.16;;;-3.46;100.00
12349;BME280;5974;42.710;27.258;2023-02-13T02:39:28;102215.88;;;-3.52;100.00
12349;BME280;5974;42.710;27.258;2023-02-13T02:42:03;102220.56;;;-3.60;100.00
12349;BME280;5974;42.710;27.258;2023-02-13T02:44:39;102221.00;;;-3.68;100.00
12349;BME280;5974;42.710;27.258;2023-02-13T02:47:13;102212.66;;;-3.82;100.00
12349;BME280;5974;42.710;27.258;2023-02-13T02:50:21;102217.19;;;-3.93;100.00
12349;BME280;5974;42.710;27.258;2023-02-13T02:52:58;102221.03;;;-4.01;100.00
12349;BME280;5974;42.710;27.258;2023-02-13T02:55:36;102233.25;;;-4.11;100.00
12349;BME280;5974;42.710;27.258;2023-02-13T02:58:09;102235.25;;;-4.22;100.00
12349;BME280;5974;42.710;27.258;2023-02-13T03:00:56;102231.72;;;-4.24;100.00
12349;BME280;5974;42.710;27.258;2023-02-13T03:03:42;102227.66;;;-4.04;100.00
12349;BME280;5974;42.710;27.258;2023-02-13T03:06:33;102231.56;;;-4.11;100.00
12349;BME280;5974;42.710;27.258;2023-02-13T03:09:05;102227.56;;;-3.90;100.00
12349;BME280;5974;42.710;27.258;2023-02-13T03:11:54;102226.53;;;-3.77;100.00
12349;BME280;5974;42.710;27.258;2023-02-13T03:14:38;102230.44;;;-4.00;100.00
12349;BME280;5974;42.710;27.258;2023-02-13T03:17:08;102235.53;;;-4.00;100.00
12349;BME280;5974;42.710;27.258;2023-02-13T03:20:05;102238.34;;;-4.11;100.00
12349;BME280;5974;42.710;27.258;2023-02-13T03:23:05;102232.34;;;-4.12;100.00
12349;BME280;5974;42.710;27.258;2023-02-13T03:25:36;102230.38;;;-4.01;100.00
12349;BME280;5974;42.710;27.258;2023-02-13T03:28:11;102239.16;;;-4.12;100.00
12349;BME280;5974;42.710;27.258;2023-02-13T03:31:05;102247.75;;;-4.26;100.00
12349;BME280;5974;42.710;27.258;2023-02-13T03:33:45;102243.44;;;-4.27;100.00
12349;BME280;5974;42.710;27.258;2023-02-13T03:36:24;102245.19;;;-4.26;100.00
12349;BME280;5974;42.710;27.258;2023-02-13T03:39:19;102243.06;;;-4.03;100.00
12349;BME280;5974;42.710;27.258;2023-02-13T03:41:51;102247.38;;;-3.86;100.00
12349;BME280;5974;42.710;27.258;2023-02-13T03:44:26;102215.22;;;-3.98;100.00
12349;BME280;5974;42.710;27.258;2023-02-13T03:46:57;102239.88;;;-3.83;100.00
12349;BME280;5974;42.710;27.258;2023-02-13T03:49:29;102240.34;;;-3.90;100.00
12349;BME280;5974;42.710;27.258;2023-02-13T03:52:20;102241.13;;;-4.23;100.00
12349;BME280;5974;42.710;27.258;2023-02-13T03:54:53;102244.16;;;-4.30;100.00
12349;BME280;5974;42.710;27.258;2023-02-13T03:57:41;102211.03;;;-4.45;100.00
12349;BME280;5974;42.710;27.258;2023-02-13T04:00:28;102239.31;;;-4.25;100.00
12349;BME280;5974;42.710;27.258;2023-02-13T04:03:01;102239.53;;;-4.37;100.00
12349;BME280;5974;42.710;27.258;2023-02-13T04:05:35;102240.50;;;-5.26;100.00
12349;BME280;5974;42.710;27.258;2023-02-13T04:08:04;102241.38;;;-4.96;100.00
12349;BME280;5974;42.710;27.258;2023-02-13T04:10:34;102247.06;;;-4.85;100.00
12349;BME280;5974;42.710;27.258;2023-02-13T04:13:07;102251.28;;;-5.01;100.00
12349;BME280;5974;42.710;27.258;2023-02-13T04:15:41;102243.47;;;-5.04;100.00
12349;BME280;5974;42.710;27.258;2023-02-13T04:18:13;102248.56;;;-5.04;100.00
12349;BME280;5974;42.710;27.258;2023-02-13T04:20:41;102244.91;;;-5.09;100.00
12349;BME280;5974;42.710;27.258;2023-02-13T04:23:09;102249.38;;;-5.19;100.00
12349;BME280;5974;42.710;27.258;2023-02-13T04:25:41;102244.03;;;-5.24;100.00
12349;BME280;5974;42.710;27.258;2023-02-13T04:28:09;102243.22;;;-5.52;100.00
12349;BME280;5974;42.710;27.258;2023-02-13T04:30:36;102245.44;;;-5.58;100.00
12349;BME280;5974;42.710;27.258;2023-02-13T04:33:03;102241.75;;;-5.49;100.00
12349;BME280;5974;42.710;27.258;2023-02-13T04:35:30;102244.00;;;-5.53;100.00
12349;BME280;5974;42.710;27.258;2023-02-13T04:37:57;102243.88;;;-5.41;100.00
12349;BME280;5974;42.710;27.258;2023-02-13T04:40:24;102245.34;;;-5.45;100.00
12349;BME280;5974;42.710;27.258;2023-02-13T04:42:52;102249.56;;;-5.45;100.00
12349;BME280;5974;42.710;27.258;2023-02-13T04:45:19;102242.16;;;-5.70;100.00
12349;BME280;5974;42.710;27.258;2023-02-13T04:47:49;102258.25;;;-6.14;100.00
12349;BME280;5974;42.710;27.258;2023-02-13T04:50:17;102222.13;;;-5.93;100.00
12349;BME280;5974;42.710;27.258;2023-02-13T04:52:44;102264.16;;;-5.43;100.00
12349;BME280;5974;42.710;27.258;2023-02-13T04:55:11;102258.22;;;-5.57;100.00
12349;BME280;5974;42.710;27.258;2023-02-13T04:57:38;102256.31;;;-5.46;100.00
12349;BME280;5974;42.710;27.258;2023-02-13T05:00:08;102268.16;;;-5.61;100.00
12349;BME280;5974;42.710;27.258;2023-02-13T05:02:35;102264.31;;;-5.69;100.00
12349;BME280;5974;42.710;27.258;2023-02-13T05:05:02;102278.69;;;-5.70;100.00
12349;BME280;5974;42.710;27.258;2023-02-13T05:07:28;102270.28;;;-5.54;100.00
12349;BME280;5974;42.710;27.258;2023-02-13T05:09:55;102270.19;;;-5.56;100.00
12349;BME280;5974;42.710;27.258;2023-02-13T05:12:22;102276.25;;;-5.54;100.00
12349;BME280;5974;42.710;27.258;2023-02-13T05:14:49;102278.72;;;-5.55;100.00
12349;BME280;5974;42.710;27.258;2023-02-13T05:17:17;102281.91;;;-5.44;100.00
12349;BME280;5974;42.710;27.258;2023-02-13T05:19:44;102285.25;;;-5.45;100.00
12349;BME280;5974;42.710;27.258;2023-02-13T05:22:11;102277.16;;;-5.24;100.00
12349;BME280;5974;42.710;27.258;2023-02-13T05:24:55;102279.78;;;-5.37;100.00
12349;BME280;5974;42.710;27.258;2023-02-13T05:27:22;102274.88;;;-5.19;100.00
12349;BME280;5974;42.710;27.258;2023-02-13T05:29:49;102280.84;;;-4.89;100.00
12349;BME280;5974;42.710;27.258;2023-02-13T05:32:17;102279.44;;;-4.84;100.00
12349;BME280;5974;42.710;27.258;2023-02-13T05:34:44;102276.09;;;-4.83;100.00
12349;BME280;5974;42.710;27.258;2023-02-13T05:37:11;102276.94;;;-5.56;100.00
12349;BME280;5974;42.710;27.258;2023-02-13T05:39:38;102292.09;;;-6.15;100.00
12349;BME280;5974;42.710;27.258;2023-02-13T05:42:04;102298.00;;;-5.73;100.00
12349;BME280;5974;42.710;27.258;2023-02-13T05:44:31;102299.22;;;-5.10;100.00
12349;BME280;5974;42.710;27.258;2023-02-13T05:46:58;102309.78;;;-5.04;100.00
12349;BME280;5974;42.710;27.258;2023-02-13T05:49:27;102303.88;;;-5.03;100.00
12349;BME280;5974;42.710;27.258;2023-02-13T05:51:53;102307.66;;;-4.81;100.00
12349;BME280;5974;42.710;27.258;2023-02-13T05:54:20;102311.09;;;-3.72;100.00
12349;BME280;5974;42.710;27.258;2023-02-13T05:56:47;102305.13;;;0.06;100.00
12349;BME280;5974;42.710;27.258;2023-02-13T05:59:14;102282.72;;;3.78;100.00
12349;BME280;5974;42.710;27.258;2023-02-13T06:01:41;102272.81;;;6.00;92.57
12349;BME280;5974;42.710;27.258;2023-02-13T06:04:08;102269.81;;;7.28;72.21
12349;BME280;5974;42.710;27.258;2023-02-13T06:06:36;102272.00;;;7.99;65.00
12349;BME280;5974;42.710;27.258;2023-02-13T06:09:03;102280.97;;;7.14;61.63
12349;BME280;5974;42.710;27.258;2023-02-13T06:11:30;102270.53;;;9.05;57.75
12349;BME280;5974;42.710;27.258;2023-02-13T06:13:57;102281.13;;;5.78;58.70
12349;BME280;5974;42.710;27.258;2023-02-13T06:16:23;102274.91;;;9.00;57.42
12349;BME280;5974;42.710;27.258;2023-02-13T06:18:50;102280.63;;;10.52;54.03
12349;BME280;5974;42.710;27.258;2023-02-13T06:21:17;102289.63;;;9.74;51.56
12349;BME280;5974;42.710;27.258;2023-02-13T06:23:45;102285.09;;;10.40;49.92
12349;BME280;5974;42.710;27.258;2023-02-13T06:26:12;102285.88;;;11.65;48.92
12349;BME280;5974;42.710;27.258;2023-02-13T06:28:39;102271.09;;;11.59;47.97
12349;BME280;5974;42.710;27.258;2023-02-13T06:31:06;102276.09;;;10.81;49.34
12349;BME280;5974;42.710;27.258;2023-02-13T06:33:33;102276.41;;;12.29;46.63
12349;BME280;5974;42.710;27.258;2023-02-13T06:36:00;102272.63;;;12.52;46.23
12349;BME280;5974;42.710;27.258;2023-02-13T06:38:27;102282.72;;;8.97;50.60
12349;BME280;5974;42.710;27.258;2023-02-13T06:40:58;102283.69;;;11.19;48.89
12349;BME280;5974;42.710;27.258;2023-02-13T06:43:26;102280.94;;;13.36;45.55
12349;BME280;5974;42.710;27.258;2023-02-13T06:45:53;102273.84;;;12.86;45.19
12349;BME280;5974;42.710;27.258;2023-02-13T06:48:20;102272.38;;;13.25;45.96
12349;BME280;5974;42.710;27.258;2023-02-13T06:50:47;102278.22;;;8.37;50.59
12349;BME280;5974;42.710;27.258;2023-02-13T06:53:16;102286.66;;;7.85;53.05
12349;BME280;5974;42.710;27.258;2023-02-13T06:55:44;102283.44;;;8.37;53.83
12349;BME280;5974;42.710;27.258;2023-02-13T06:58:12;102280.06;;;8.55;53.48
12349;BME280;5974;42.710;27.258;2023-02-13T07:00:39;102286.19;;;8.89;53.78
12349;BME280;5974;42.710;27.258;2023-02-13T07:03:06;102259.84;;;8.04;54.27
12349;BME280;5974;42.710;27.258;2023-02-13T07:05:34;102278.34;;;9.61;52.74
12349;BME280;5974;42.710;27.258;2023-02-13T07:08:01;102262.16;;;10.78;50.89
12349;BME280;5974;42.710;27.258;2023-02-13T07:10:28;102271.34;;;9.69;51.47
12349;BME280;5974;42.710;27.258;2023-02-13T07:12:54;102264.75;;;10.81;52.77
12349;BME280;5974;42.710;27.258;2023-02-13T07:15:23;102270.78;;;11.88;49.61
12349;BME280;5974;42.710;27.258;2023-02-13T07:17:54;102269.66;;;8.91;51.48
12349;BME280;5974;42.710;27.258;2023-02-13T07:20:21;102266.47;;;10.86;49.83
12349;BME280;5974;42.710;27.258;2023-02-13T07:22:48;102262.41;;;10.42;50.60
12349;BME280;5974;42.710;27.258;2023-02-13T07:25:15;102257.00;;;10.69;49.14
12349;BME280;5974;42.710;27.258;2023-02-13T07:27:42;102275.22;;;10.82;49.49
12349;BME280;5974;42.710;27.258;2023-02-13T07:30:10;102264.56;;;13.20;46.70
12349;BME280;5974;42.710;27.258;2023-02-13T07:32:38;102254.56;;;16.34;42.54
12349;BME280;5974;42.710;27.258;2023-02-13T07:35:05;102258.06;;;14.70;42.12
12349;BME280;5974;42.710;27.258;2023-02-13T07:37:32;102260.94;;;8.77;49.91
12349;BME280;5974;42.710;27.258;2023-02-13T07:39:59;102257.59;;;7.21;54.43
12349;BME280;5974;42.710;27.258;2023-02-13T07:42:25;102266.19;;;6.24;55.79
12349;BME280;5974;42.710;27.258;2023-02-13T07:44:52;102262.06;;;5.18;58.96
12349;BME280;5974;42.710;27.258;2023-02-13T07:47:19;102255.03;;;4.60;60.39
12349;BME280;5974;42.710;27.258;2023-02-13T07:49:47;102256.44;;;5.44;61.74
12349;BME280;5974;42.710;27.258;2023-02-13T07:52:14;102250.13;;;5.26;61.98
12349;BME280;5974;42.710;27.258;2023-02-13T07:54:41;102251.44;;;5.57;61.79
12349;BME280;5974;42.710;27.258;2023-02-13T07:57:11;102247.88;;;5.52;62.53
12349;BME280;5974;42.710;27.258;2023-02-13T07:59:38;102245.63;;;5.74;62.99
12349;BME280;5974;42.710;27.258;2023-02-13T08:02:07;102232.41;;;5.58;64.12
12349;BME280;5974;42.710;27.258;2023-02-13T08:04:36;102244.19;;;5.34;63.90
12349;BME280;5974;42.710;27.258;2023-02-13T08:07:04;102227.81;;;5.38;63.23
12349;BME280;5974;42.710;27.258;2023-02-13T08:09:31;102230.75;;;5.06;62.20
12349;BME280;5974;42.710;27.258;2023-02-13T08:12:15;102224.34;;;4.82;63.06
12349;BME280;5974;42.710;27.258;2023-02-13T08:14:42;102223.16;;;5.16;63.57
12349;BME280;5974;42.710;27.258;2023-02-13T08:17:09;102227.47;;;5.74;62.89
12349;BME280;5974;42.710;27.258;2023-02-13T08:19:36;102221.34;;;5.71;63.08
12349;BME280;5974;42.710;27.258;2023-02-13T08:22:04;102236.97;;;5.75;62.11
12349;BME280;5974;42.710;27.258;2023-02-13T08:24:31;102232.78;;;5.83;61.47
12349;BME280;5974;42.710;27.258;2023-02-13T08:26:58;102233.69;;;5.85;60.95
12349;BME280;5974;42.710;27.258;2023-02-13T08:29:25;102228.63;;;5.97;60.40
12349;BME280;5974;42.710;27.258;2023-02-13T08:31:52;102225.25;;;6.02;60.35
12349;BME280;5974;42.710;27.258;2023-02-13T08:34:19;102229.69;;;6.12;59.74
12349;BME280;5974;42.710;27.258;2023-02-13T08:36:45;102226.50;;;6.37;60.91
12349;BME280;5974;42.710;27.258;2023-02-13T08:39:14;102217.91;;;6.44;60.23
12349;BME280;5974;42.710;27.258;2023-02-13T08:41:40;102218.09;;;6.62;59.24
12349;BME280;5974;42.710;27.258;2023-02-13T08:44:08;102211.38;;;6.85;58.69
12349;BME280;5974;42.710;27.258;2023-02-13T08:46:35;102209.34;;;6.51;58.61
12349;BME280;5974;42.710;27.258;2023-02-13T08:49:02;102207.59;;;6.50;58.30
12349;BME280;5974;42.710;27.258;2023-02-13T08:51:29;102201.97;;;7.02;58.41
12349;BME280;5974;42.710;27.258;2023-02-13T08:53:56;102200.06;;;6.80;57.90
12349;BME280;5974;42.710;27.258;2023-02-13T08:56:24;102196.56;;;5.92;58.35
12349;BME280;5974;42.710;27.258;2023-02-13T08:58:51;102200.31;;;6.17;58.80
12349;BME280;5974;42.710;27.258;2023-02-13T09:01:19;102200.69;;;6.53;58.28
12349;BME280;5974;42.710;27.258;2023-02-13T09:03:48;102198.03;;;6.47;57.76
12349;BME280;5974;42.710;27.258;2023-02-13T09:06:15;102195.03;;;7.01;57.80
12349;BME280;5974;42.710;27.258;2023-02-13T09:08:42;102194.88;;;6.83;56.87
12349;BME280;5974;42.710;27.258;2023-02-13T09:11:09;102188.84;;;6.84;56.14
12349;BME280;5974;42.710;27.258;2023-02-13T09:13:37;102168.63;;;6.53;55.91
12349;BME280;5974;42.710;27.258;2023-02-13T09:16:06;102194.13;;;6.96;56.83
12349;BME280;5974;42.710;27.258;2023-02-13T09:18:34;102181.38;;;7.36;54.82
12349;BME280;5974;42.710;27.258;2023-02-13T09:21:04;102188.09;;;7.02;53.36
12349;BME280;5974;42.710;27.258;2023-02-13T09:23:32;102179.28;;;6.83;54.40
12349;BME280;5974;42.710;27.258;2023-02-13T09:25:59;102173.47;;;7.18;54.25
12349;BME280;5974;42.710;27.258;2023-02-13T09:28:27;102168.53;;;7.66;53.18
12349;BME280;5974;42.710;27.258;2023-02-13T09:30:55;102167.06;;;8.51;52.43
12349;BME280;5974;42.710;27.258;2023-02-13T09:33:22;102160.91;;;8.25;52.35
12349;BME280;5974;42.710;27.258;2023-02-13T09:35:49;102164.41;;;9.18;50.82
12349;BME280;5974;42.710;27.258;2023-02-13T09:38:16;102157.44;;;9.27;50.93
12349;BME280;5974;42.710;27.258;2023-02-13T09:40:47;102154.88;;;8.87;48.71
12349;BME280;5974;42.710;27.258;2023-02-13T09:43:20;102150.53;;;8.96;50.95
12349;BME280;5974;42.710;27.258;2023-02-13T09:45:49;102153.13;;;8.70;50.29
12349;BME280;5974;42.710;27.258;2023-02-13T09:48:25;102147.00;;;9.23;49.40
12349;BME280;5974;42.710;27.258;2023-02-13T09:50:54;102144.34;;;9.43;49.40
12349;BME280;5974;42.710;27.258;2023-02-13T09:53:23;102140.97;;;8.77;49.59
12349;BME280;5974;42.710;27.258;2023-02-13T09:55:56;102137.28;;;9.60;48.98
12349;BME280;5974;42.710;27.258;2023-02-13T09:58:35;102133.88;;;9.49;48.40
12349;BME280;5974;42.710;27.258;2023-02-13T10:01:16;102125.97;;;9.68;48.29
12349;BME280;5974;42.710;27.258;2023-02-13T10:03:52;102121.59;;;9.72;48.83
12349;BME280;5974;42.710;27.258;2023-02-13T10:06:26;102118.25;;;9.34;48.98
12349;BME280;5974;42.710;27.258;2023-02-13T10:09:08;102113.84;;;9.48;49.09
12349;BME280;5974;42.710;27.258;2023-02-13T10:11:55;102088.78;;;8.89;50.37
12349;BME280;5974;42.710;27.258;2023-02-13T10:14:31;102110.56;;;8.65;50.70
12349;BME280;5974;42.710;27.258;2023-02-13T10:17:04;102107.09;;;8.63;50.79
12349;BME280;5974;42.710;27.258;2023-02-13T10:19:39;102095.78;;;8.66;50.45
12349;BME280;5974;42.710;27.258;2023-02-13T10:22:12;102102.69;;;8.17;51.73
12349;BME280;5974;42.710;27.258;2023-02-13T10:24:44;102087.97;;;8.55;51.08
12349;BME280;5974;42.710;27.258;2023-02-13T10:27:19;102091.44;;;8.38;51.25
12349;BME280;5974;42.710;27.258;2023-02-13T10:29:52;102087.06;;;8.22;50.91
12349;BME280;5974;42.710;27.258;2023-02-13T10:32:56;102040.16;;;8.59;51.06
12349;BME280;5974;42.710;27.258;2023-02-13T10:35:41;102069.69;;;8.92;50.42
12349;BME280;5974;42.710;27.258;2023-02-13T10:38:14;102067.88;;;9.01;50.87
12349;BME280;5974;42.710;27.258;2023-02-13T10:41:12;102063.56;;;9.03;50.27
12349;BME280;5974;42.710;27.258;2023-02-13T10:43:54;102062.75;;;8.69;50.32
12349;BME280;5974;42.710;27.258;2023-02-13T10:46:29;102055.75;;;8.84;51.41
12349;BME280;5974;42.710;27.258;2023-02-13T10:49:16;102047.09;;;8.77;51.10
12349;BME280;5974;42.710;27.258;2023-02-13T10:51:55;102049.69;;;8.85;50.69
12349;BME280;5974;42.710;27.258;2023-02-13T10:54:39;102042.66;;;9.02;50.57
12349;BME280;5974;42.710;27.258;2023-02-13T10:57:17;102042.78;;;8.37;52.75
12349;BME280;5974;42.710;27.258;2023-02-13T11:00:00;102011.44;;;8.78;51.78
12349;BME280;5974;42.710;27.258;2023-02-13T11:02:30;102030.44;;;9.14;51.74
12349;BME280;5974;42.710;27.258;2023-02-13T11:05:01;102033.00;;;9.28;51.09
12349;BME280;5974;42.710;27.258;2023-02-13T11:07:30;102029.22;;;9.82;49.94
12349;BME280;5974;42.710;27.258;2023-02-13T11:10:00;102029.63;;;9.09;49.74
12349;BME280;5974;42.710;27.258;2023-02-13T11:12:30;102014.09;;;8.64;50.20
12349;BME280;5974;42.710;27.258;2023-02-13T11:14:58;102018.38;;;8.80;50.43
12349;BME280;5974;42.710;27.258;2023-02-13T11:17:28;102006.28;;;8.15;51.49
12349;BME280;5974;42.710;27.258;2023-02-13T11:19:57;102001.09;;;8.44;52.55
12349;BME280;5974;42.710;27.258;2023-02-13T11:22:31;102001.00;;;8.84;52.75
12349;BME280;5974;42.710;27.258;2023-02-13T11:25:01;102005.28;;;9.07;52.26
12349;BME280;5974;42.710;27.258;2023-02-13T11:27:31;102003.41;;;9.34;51.31
12349;BME280;5974;42.710;27.258;2023-02-13T11:30:00;102001.69;;;9.23;50.53
12349;BME280;5974;42.710;27.258;2023-02-13T11:32:28;101975.72;;;9.02;50.87
12349;BME280;5974;42.710;27.258;2023-02-13T11:34:55;101993.16;;;8.94;51.04
12349;BME280;5974;42.710;27.258;2023-02-13T11:37:25;101987.03;;;9.04;51.02
12349;BME280;5974;42.710;27.258;2023-02-13T11:39:55;101986.03;;;9.28;51.03
12349;BME280;5974;42.710;27.258;2023-02-13T11:42:29;101977.16;;;9.55;50.43
12349;BME280;5974;42.710;27.258;2023-02-13T11:44:59;101973.63;;;9.65;50.87
12349;BME280;5974;42.710;27.258;2023-02-13T11:47:45;101971.78;;;9.76;51.01
12349;BME280;5974;42.710;27.258;2023-02-13T11:50:24;101965.91;;;9.47;51.09
12349;BME280;5974;42.710;27.258;2023-02-13T11:52:54;101954.56;;;9.48;51.13
12349;BME280;5974;42.710;27.258;2023-02-13T11:55:30;101956.09;;;9.80;50.39
12349;BME280;5974;42.710;27.258;2023-02-13T11:57:59;101951.91;;;9.58;50.91
12349;BME280;5974;42.710;27.258;2023-02-13T12:00:31;101945.22;;;9.15;51.26
12349;BME280;5974;42.710;27.258;2023-02-13T12:03:22;101943.06;;;9.77;50.82
12349;BME280;5974;42.710;27.258;2023-02-13T12:06:01;101926.63;;;9.60;50.94
12349;BME280;5974;42.710;27.258;2023-02-13T12:08:29;101939.00;;;9.33;50.63
12349;BME280;5974;42.710;27.258;2023-02-13T12:10:59;101921.47;;;9.53;50.82
12349;BME280;5974;42.710;27.258;2023-02-13T12:13:32;101926.13;;;9.05;51.35
12349;BME280;5974;42.710;27.258;2023-02-13T12:16:04;101921.59;;;9.38;51.28
12349;BME280;5974;42.710;27.258;2023-02-13T12:18:39;101915.16;;;9.79;50.62
12349;BME280;5974;42.710;27.258;2023-02-13T12:21:21;101913.94;;;9.06;51.75
12349;BME280;5974;42.710;27.258;2023-02-13T12:23:59;101916.41;;;9.30;52.27
12349;BME280;5974;42.710;27.258;2023-02-13T12:26:32;101905.78;;;9.59;51.93
12349;BME280;5974;42.710;27.258;2023-02-13T12:32:03;101908.16;;;9.86;50.57
12349;BME280;5974;42.710;27.258;2023-02-13T12:37:41;101895.88;;;9.96;51.15
12349;BME280;5974;42.710;27.258;2023-02-13T12:40:27;101891.72;;;9.75;50.52
12349;BME280;5974;42.710;27.258;2023-02-13T12:43:12;101905.00;;;9.42;51.21
12349;BME280;5974;42.710;27.258;2023-02-13T12:45:51;101897.25;;;9.30;51.99
12349;BME280;5974;42.710;27.258;2023-02-13T12:48:30;101901.56;;;9.40;51.96
12349;BME280;5974;42.710;27.258;2023-02-13T12:51:16;101896.13;;;9.67;52.03
12349;BME280;5974;42.710;27.258;2023-02-13T12:53:59;101904.25;;;9.27;51.84
12349;BME280;5974;42.710;27.258;2023-02-13T12:56:53;101893.13;;;8.97;52.38
12349;BME280;5974;42.710;27.258;2023-02-13T12:59:31;101885.28;;;8.95;52.70
12349;BME280;5974;42.710;27.258;2023-02-13T13:05:08;101870.91;;;9.64;52.14
12349;BME280;5974;42.710;27.258;2023-02-13T13:07:52;101869.09;;;9.71;52.20
12349;BME280;5974;42.710;27.258;2023-02-13T13:10:34;101887.66;;;9.36;52.37
12349;BME280;5974;42.710;27.258;2023-02-13T13:13:14;101884.88;;;9.59;52.08
12349;BME280;5974;42.710;27.258;2023-02-13T13:15:52;101878.53;;;9.86;51.51
12349;BME280;5974;42.710;27.258;2023-02-13T13:18:34;101876.00;;;9.76;52.09
12349;BME280;5974;42.710;27.258;2023-02-13T13:21:21;101883.25;;;10.37;50.75
12349;BME280;5974;42.710;27.258;2023-02-13T13:23:53;101865.41;;;9.92;51.31
12349;BME280;5974;42.710;27.258;2023-02-13T13:26:31;101870.09;;;9.59;52.11